Time;durP1;ratioP1;P1;durP2;ratioP2;P2;SDS_P1;SDS_P2;PMS_P1;PMS_P2;Temp;Humidity;BMP_temperature;BMP_pressure;BME280_temperature;BME280_humidity;BME280_pressure;Samples;Min_cycle;Max_cycle;Signal;HPM_P1;HPM_P2
2022/03/24 00:02:06;;;;;;;;;;;8.70;38.70;;;;;;6339308;22;20273;-86
2022/03/24 00:04:32;;;;;;;;;;;8.70;38.60;;;;;;6338549;22;19914;-87
2022/03/24 00:06:57;;;;;;;;;;;8.60;38.50;;;;;;6312209;22;19911;-86
2022/03/24 00:09:23;;;;;;;;;;;8.50;38.40;;;;;;6338545;22;19910;-86
2022/03/24 00:11:48;;;;;;;;;;;8.50;38.60;;;;;;6339992;22;19911;-86
2022/03/24 00:14:15;;;;;;;;;;;8.50;38.80;;;;;;6338510;22;19906;-86
2022/03/24 00:16:40;;;;;;;;;;;8.50;38.70;;;;;;6337776;22;19906;-86
2022/03/24 00:19:07;;;;;;;;;;;8.50;38.70;;;;;;6338155;22;19959;-86
2022/03/24 00:21:33;;;;;;;;;;;8.40;38.70;;;;;;6337890;22;19933;-86
2022/03/24 00:23:58;;;;;;;;;;;8.40;38.70;;;;;;6337971;22;20308;-87
2022/03/24 00:26:23;;;;;;;;;;;8.40;38.90;;;;;;6337608;22;19910;-86
2022/03/24 00:28:49;;;;;;;;;;;8.40;39.00;;;;;;6337880;22;19918;-86
2022/03/24 00:31:14;;;;;;;;;;;8.30;39.10;;;;;;6337915;22;19907;-86
2022/03/24 00:33:40;;;;;;;;;;;8.20;39.10;;;;;;6338015;22;19936;-85
2022/03/24 00:36:08;;;;;;;;;;;8.20;39.10;;;;;;6338217;22;20292;-86
2022/03/24 00:38:34;;;;;;;;;;;8.20;39.10;;;;;;6311848;22;19926;-87
2022/03/24 00:41:00;;;;;;;;;;;8.10;39.10;;;;;;6340214;22;19907;-87
2022/03/24 00:43:26;;;;;;;;;;;8.10;39.30;;;;;;6338678;22;19984;-86
2022/03/24 00:45:52;;;;;;;;;;;8.00;39.40;;;;;;6337966;22;19910;-86
2022/03/24 00:48:18;;;;;;;;;;;8.00;39.30;;;;;;6339614;22;20215;-86
2022/03/24 00:50:44;;;;;;;;;;;8.00;39.50;;;;;;6339455;22;19906;-86
2022/03/24 00:53:11;;;;;;;;;;;7.90;39.70;;;;;;6312061;22;20315;-86
2022/03/24 00:55:38;;;;;;;;;;;7.90;39.50;;;;;;6340093;22;19907;-86
2022/03/24 00:58:04;;;;;;;;;;;7.90;39.60;;;;;;6311485;22;19914;-87
2022/03/24 01:00:30;;;;;;;;;;;7.80;39.90;;;;;;6337581;22;19906;-87
2022/03/24 01:02:57;;;;;;;;;;;7.80;39.80;;;;;;6311389;22;19907;-85
2022/03/24 01:05:23;;;;;;;;;;;7.80;39.80;;;;;;6339374;22;19942;-86
2022/03/24 01:07:49;;;;;;;;;;;7.80;39.90;;;;;;6311626;22;19907;-86
2022/03/24 01:10:16;;;;;;;;;;;7.80;40.00;;;;;;6338911;22;20270;-84
2022/03/24 01:12:42;;;;;;;;;;;7.70;40.10;;;;;;6339125;22;19907;-87
2022/03/24 01:15:14;;;;;;;;;;;7.70;40.10;;;;;;6312159;22;19938;-86
2022/03/24 01:17:40;;;;;;;;;;;7.70;40.10;;;;;;6312891;22;19922;-87
2022/03/24 01:20:07;;;;;;;;;;;7.70;40.10;;;;;;6340886;22;19911;-87
2022/03/24 01:22:32;;;;;;;;;;;7.60;40.30;;;;;;6340259;22;19906;-87
2022/03/24 01:24:59;;;;;;;;;;;7.60;40.50;;;;;;6340658;22;19914;-87
2022/03/24 01:27:26;;;;;;;;;;;7.60;40.50;;;;;;6338881;22;19960;-86
2022/03/24 01:29:51;;;;;;;;;;;7.60;40.50;;;;;;6312739;22;19917;-87
2022/03/24 01:32:18;;;;;;;;;;;7.60;40.40;;;;;;6312453;22;20295;-87
2022/03/24 01:34:44;;;;;;;;;;;7.60;40.50;;;;;;6340628;22;19907;-87
2022/03/24 01:37:11;;;;;;;;;;;7.60;40.50;;;;;;6337746;22;19918;-86
2022/03/24 01:39:37;;;;;;;;;;;7.50;40.60;;;;;;6340628;22;19919;-86
2022/03/24 01:42:02;;;;;;;;;;;7.50;40.60;;;;;;6338074;22;19915;-86
2022/03/24 01:44:28;;;;;;;;;;;7.50;40.90;;;;;;6338783;22;20323;-86
2022/03/24 01:46:58;;;;;;;;;;;7.50;41.10;;;;;;6337412;22;20314;-86
2022/03/24 01:49:25;;;;;;;;;;;7.40;41.00;;;;;;6311877;22;19938;-87
2022/03/24 01:51:50;;;;;;;;;;;7.40;41.00;;;;;;6312371;22;20009;-86
2022/03/24 01:54:16;;;;;;;;;;;7.40;40.90;;;;;;6338451;22;20262;-86
2022/03/24 01:56:42;;;;;;;;;;;7.30;40.80;;;;;;6311977;22;19932;-86
2022/03/24 01:59:08;;;;;;;;;;;7.30;41.00;;;;;;6340025;22;20333;-86
2022/03/24 02:01:37;;;;;;;;;;;7.30;41.20;;;;;;6340170;22;19917;-86
2022/03/24 02:04:06;;;;;;;;;;;7.30;41.20;;;;;;6338526;22;20315;-86
2022/03/24 02:06:32;;;;;;;;;;;7.30;41.10;;;;;;6312554;22;20345;-86
2022/03/24 02:08:58;;;;;;;;;;;7.30;41.10;;;;;;6312624;22;20349;-87
2022/03/24 02:11:24;;;;;;;;;;;7.30;41.30;;;;;;6339867;22;19959;-87
2022/03/24 02:13:49;;;;;;;;;;;7.20;41.30;;;;;;6340212;22;20301;-87
2022/03/24 02:16:15;;;;;;;;;;;7.20;41.30;;;;;;6340518;22;19902;-87
2022/03/24 02:18:40;;;;;;;;;;;7.20;41.30;;;;;;6311775;22;19945;-87
2022/03/24 02:21:06;;;;;;;;;;;7.20;41.30;;;;;;6338094;22;19902;-86
2022/03/24 02:23:32;;;;;;;;;;;7.20;41.40;;;;;;6339645;22;19911;-87
2022/03/24 02:25:58;;;;;;;;;;;7.10;41.40;;;;;;6338330;22;19910;-86
2022/03/24 02:28:23;;;;;;;;;;;7.10;41.30;;;;;;6311702;22;19918;-87
2022/03/24 02:30:50;;;;;;;;;;;7.00;41.40;;;;;;6312154;22;19941;-87
2022/03/24 02:33:19;;;;;;;;;;;7.00;41.40;;;;;;6312343;22;19906;-87
2022/03/24 02:35:45;;;;;;;;;;;7.00;41.50;;;;;;6339979;22;19907;-87
2022/03/24 02:38:11;;;;;;;;;;;7.00;41.60;;;;;;6339742;22;19997;-87
2022/03/24 02:40:36;;;;;;;;;;;6.90;41.70;;;;;;6338458;22;20296;-87
2022/03/24 02:43:02;;;;;;;;;;;6.90;41.80;;;;;;6338475;22;20290;-87
2022/03/24 02:45:27;;;;;;;;;;;6.90;41.90;;;;;;6338339;22;20258;-86
2022/03/24 02:47:53;;;;;;;;;;;6.80;41.80;;;;;;6340233;22;20627;-86
2022/03/24 02:50:22;;;;;;;;;;;6.80;41.80;;;;;;6338169;22;19946;-85
2022/03/24 02:52:47;;;;;;;;;;;6.80;41.90;;;;;;6312067;22;19941;-86
2022/03/24 02:55:13;;;;;;;;;;;6.80;42.00;;;;;;6339378;22;20327;-86
2022/03/24 02:57:38;;;;;;;;;;;6.80;42.00;;;;;;6338386;22;19907;-86
2022/03/24 03:00:04;;;;;;;;;;;6.70;42.00;;;;;;6340754;22;19989;-86
2022/03/24 03:02:30;;;;;;;;;;;6.70;42.00;;;;;;6312401;22;19926;-86
2022/03/24 03:04:58;;;;;;;;;;;6.70;42.20;;;;;;6339762;22;20283;-86
2022/03/24 03:07:23;;;;;;;;;;;6.70;42.20;;;;;;6339563;22;19910;-86
2022/03/24 03:09:49;;;;;;;;;;;6.70;42.20;;;;;;6337937;22;19918;-86
2022/03/24 03:12:16;;;;;;;;;;;6.60;42.10;;;;;;6311354;22;19903;-86
2022/03/24 03:14:41;;;;;;;;;;;6.60;42.20;;;;;;6311179;22;19910;-86
2022/03/24 03:17:07;;;;;;;;;;;6.60;42.20;;;;;;6339540;22;19906;-86
2022/03/24 03:19:34;;;;;;;;;;;6.50;42.20;;;;;;6337873;22;19918;-86
2022/03/24 03:22:00;;;;;;;;;;;6.50;42.30;;;;;;6338765;22;19930;-87
2022/03/24 03:24:25;;;;;;;;;;;6.50;42.30;;;;;;6311592;22;19911;-86
2022/03/24 03:26:52;;;;;;;;;;;6.40;42.40;;;;;;6337689;22;20318;-87
2022/03/24 03:29:18;;;;;;;;;;;6.40;42.40;;;;;;6312068;22;19917;-87
2022/03/24 03:31:44;;;;;;;;;;;6.40;42.40;;;;;;6341037;22;19978;-86
2022/03/24 03:34:10;;;;;;;;;;;6.40;42.40;;;;;;6341067;22;19918;-87
2022/03/24 03:36:37;;;;;;;;;;;6.40;42.30;;;;;;6341217;22;20036;-87
2022/03/24 03:39:04;;;;;;;;;;;6.30;42.40;;;;;;6341317;22;19990;-86
2022/03/24 03:41:29;;;;;;;;;;;6.30;42.40;;;;;;6313344;22;19934;-87
2022/03/24 03:43:55;;;;;;;;;;;6.30;42.40;;;;;;6339158;22;20357;-87
2022/03/24 03:46:21;;;;;;;;;;;6.20;42.50;;;;;;6341018;22;19903;-86
2022/03/24 03:48:47;;;;;;;;;;;6.20;42.50;;;;;;6313385;22;19933;-87
2022/03/24 03:51:12;;;;;;;;;;;6.20;42.60;;;;;;6312349;22;19903;-87
2022/03/24 03:53:38;;;;;;;;;;;6.20;42.60;;;;;;6339813;22;19910;-87
2022/03/24 03:56:04;;;;;;;;;;;6.10;42.70;;;;;;6338938;22;19928;-86
2022/03/24 03:58:30;;;;;;;;;;;6.10;42.70;;;;;;6312635;22;19918;-86
2022/03/24 04:00:56;;;;;;;;;;;6.10;42.80;;;;;;6338727;22;19979;-87
2022/03/24 04:03:25;;;;;;;;;;;6.10;42.90;;;;;;6339000;22;20200;-87
2022/03/24 04:05:52;;;;;;;;;;;6.10;43.00;;;;;;6312188;22;19906;-87
2022/03/24 04:08:18;;;;;;;;;;;6.10;43.10;;;;;;6339945;22;19914;-87
2022/03/24 04:10:43;;;;;;;;;;;6.10;43.30;;;;;;6338356;22;19914;-86
2022/03/24 04:13:11;;;;;;;;;;;6.10;43.60;;;;;;6340496;22;19963;-86
2022/03/24 04:15:37;;;;;;;;;;;6.10;43.80;;;;;;6338913;22;20343;-86
2022/03/24 04:18:03;;;;;;;;;;;6.00;43.70;;;;;;6338433;22;19911;-87
2022/03/24 04:20:28;;;;;;;;;;;6.00;43.80;;;;;;6341038;22;19911;-87
2022/03/24 04:22:54;;;;;;;;;;;6.00;44.00;;;;;;6340868;22;19925;-87
2022/03/24 04:25:20;;;;;;;;;;;6.00;44.00;;;;;;6312919;22;20326;-86
2022/03/24 04:27:46;;;;;;;;;;;6.00;43.90;;;;;;6312626;22;20559;-87
2022/03/24 04:30:12;;;;;;;;;;;6.00;43.90;;;;;;6340514;22;19981;-86
2022/03/24 04:32:38;;;;;;;;;;;6.00;43.90;;;;;;6339919;22;19934;-86
2022/03/24 04:35:04;;;;;;;;;;;6.00;44.00;;;;;;6341601;22;19914;-86
2022/03/24 04:37:29;;;;;;;;;;;6.00;44.20;;;;;;6313649;22;19914;-86
2022/03/24 04:39:55;;;;;;;;;;;6.00;44.20;;;;;;6341317;22;19963;-87
2022/03/24 04:42:20;;;;;;;;;;;6.00;44.20;;;;;;6339535;22;20342;-87
2022/03/24 04:44:46;;;;;;;;;;;6.00;44.10;;;;;;6339611;22;19907;-87
2022/03/24 04:47:11;;;;;;;;;;;6.00;44.20;;;;;;6338960;22;19952;-85
2022/03/24 04:49:37;;;;;;;;;;;6.10;44.20;;;;;;6340487;22;19965;-86
2022/03/24 04:52:03;;;;;;;;;;;6.10;44.10;;;;;;6339142;22;19952;-86
2022/03/24 04:54:29;;;;;;;;;;;6.10;44.10;;;;;;6339667;22;19914;-86
2022/03/24 04:56:56;;;;;;;;;;;6.00;44.00;;;;;;6312866;22;19911;-86
2022/03/24 04:59:22;;;;;;;;;;;6.00;43.90;;;;;;6338527;22;19946;-86
2022/03/24 05:01:47;;;;;;;;;;;5.90;44.00;;;;;;6340606;22;19907;-86
2022/03/24 05:04:15;;;;;;;;;;;5.90;44.00;;;;;;6340671;22;19910;-86
2022/03/24 05:06:40;;;;;;;;;;;5.90;43.90;;;;;;6339828;22;19906;-86
2022/03/24 05:09:06;;;;;;;;;;;5.90;43.90;;;;;;6339136;22;19975;-86
2022/03/24 05:11:31;;;;;;;;;;;5.80;44.00;;;;;;6339016;22;19948;-86
2022/03/24 05:13:56;;;;;;;;;;;5.80;44.00;;;;;;6338239;22;19911;-86
2022/03/24 05:16:22;;;;;;;;;;;5.80;44.00;;;;;;6338625;22;19909;-87
2022/03/24 05:18:47;;;;;;;;;;;5.80;44.10;;;;;;6338425;22;19964;-87
2022/03/24 05:21:13;;;;;;;;;;;5.70;44.20;;;;;;6338470;22;19910;-86
2022/03/24 05:23:39;;;;;;;;;;;5.70;44.40;;;;;;6340048;22;19922;-86
2022/03/24 05:26:04;;;;;;;;;;;5.80;44.40;;;;;;6338834;22;19959;-87
2022/03/24 05:28:30;;;;;;;;;;;5.70;44.40;;;;;;6340453;22;19913;-87
2022/03/24 05:30:55;;;;;;;;;;;5.70;44.40;;;;;;6341048;22;19907;-87
2022/03/24 05:33:21;;;;;;;;;;;5.70;44.60;;;;;;6340916;22;19907;-86
2022/03/24 05:35:46;;;;;;;;;;;5.80;45.00;;;;;;6342451;22;19903;-86
2022/03/24 05:38:12;;;;;;;;;;;5.80;45.20;;;;;;6340227;22;19925;-86
2022/03/24 05:40:40;;;;;;;;;;;6.00;45.30;;;;;;6341126;22;19942;-86
2022/03/24 05:43:06;;;;;;;;;;;6.10;45.40;;;;;;6314234;22;19913;-86
2022/03/24 05:45:31;;;;;;;;;;;6.20;45.60;;;;;;6340811;22;19954;-86
2022/03/24 05:47:57;;;;;;;;;;;6.40;46.00;;;;;;6339009;22;19907;-86
2022/03/24 05:50:24;;;;;;;;;;;6.60;46.40;;;;;;6312378;22;19914;-85
2022/03/24 05:52:50;;;;;;;;;;;6.70;46.50;;;;;;6337640;22;19952;-86
2022/03/24 05:55:18;;;;;;;;;;;7.00;46.60;;;;;;6340488;22;19907;-87
2022/03/24 05:57:44;;;;;;;;;;;7.20;46.70;;;;;;6312263;22;20005;-86
2022/03/24 06:00:10;;;;;;;;;;;7.50;46.80;;;;;;6338605;22;20239;-86
2022/03/24 06:02:36;;;;;;;;;;;7.80;47.00;;;;;;6338297;22;19907;-86
2022/03/24 06:05:04;;;;;;;;;;;8.10;47.10;;;;;;6338960;22;19914;-86
2022/03/24 06:07:29;;;;;;;;;;;8.40;47.20;;;;;;6312469;22;19924;-87
2022/03/24 06:09:55;;;;;;;;;;;8.80;47.20;;;;;;6340680;22;19989;-87
2022/03/24 06:12:21;;;;;;;;;;;9.20;47.20;;;;;;6338145;22;19907;-86
2022/03/24 06:14:46;;;;;;;;;;;9.50;47.20;;;;;;6339466;22;19907;-86
2022/03/24 06:17:12;;;;;;;;;;;9.90;47.10;;;;;;6340879;22;20022;-87
2022/03/24 06:19:37;;;;;;;;;;;10.30;47.00;;;;;;6339102;22;19910;-86
2022/03/24 06:22:03;;;;;;;;;;;10.70;46.90;;;;;;6340333;22;19958;-87
2022/03/24 06:24:30;;;;;;;;;;;11.10;46.70;;;;;;6313437;22;19917;-87
2022/03/24 06:26:55;;;;;;;;;;;11.40;46.50;;;;;;6312588;22;19902;-87
2022/03/24 06:29:22;;;;;;;;;;;11.80;46.20;;;;;;6337968;22;20230;-87
2022/03/24 06:31:48;;;;;;;;;;;12.20;45.90;;;;;;6338909;22;19924;-87
2022/03/24 06:34:13;;;;;;;;;;;12.60;45.60;;;;;;6312085;22;19957;-88
2022/03/24 06:36:39;;;;;;;;;;;12.90;45.40;;;;;;6338600;22;19913;-86
2022/03/24 06:39:05;;;;;;;;;;;13.30;45.20;;;;;;6315075;22;19976;-86
2022/03/24 06:41:31;;;;;;;;;;;13.80;45.00;;;;;;6312313;22;19910;-87
2022/03/24 06:43:57;;;;;;;;;;;14.20;44.60;;;;;;6339177;22;19917;-86
2022/03/24 06:46:25;;;;;;;;;;;14.60;44.10;;;;;;6340470;22;19914;-86
2022/03/24 06:48:51;;;;;;;;;;;15.10;43.60;;;;;;6311888;22;19907;-86
2022/03/24 06:51:16;;;;;;;;;;;15.50;43.20;;;;;;6311802;22;19910;-87
2022/03/24 06:53:42;;;;;;;;;;;15.90;42.80;;;;;;6338489;22;19914;-87
2022/03/24 06:56:08;;;;;;;;;;;16.40;42.20;;;;;;6339846;22;19910;-87
2022/03/24 06:58:34;;;;;;;;;;;16.80;41.70;;;;;;6337904;22;20006;-88
2022/03/24 07:01:00;;;;;;;;;;;17.20;41.00;;;;;;6313257;22;20311;-88
2022/03/24 07:03:25;;;;;;;;;;;17.70;40.10;;;;;;6340059;22;19906;-86
2022/03/24 07:05:51;;;;;;;;;;;18.10;40.00;;;;;;6337746;22;19911;-87
2022/03/24 07:08:16;;;;;;;;;;;18.50;39.90;;;;;;6312325;22;19906;-88
2022/03/24 07:10:42;;;;;;;;;;;18.90;39.60;;;;;;6339693;22;19936;-87
2022/03/24 07:13:07;;;;;;;;;;;19.30;39.20;;;;;;6339386;22;19906;-88
2022/03/24 07:15:33;;;;;;;;;;;19.80;38.40;;;;;;6339768;22;19914;-87
2022/03/24 07:17:59;;;;;;;;;;;20.20;37.80;;;;;;6338836;22;19971;-87
2022/03/24 07:20:24;;;;;;;;;;;20.60;37.20;;;;;;6337946;22;20323;-87
2022/03/24 07:22:50;;;;;;;;;;;21.00;36.50;;;;;;6339974;22;20502;-87
2022/03/24 07:25:15;;;;;;;;;;;21.40;36.00;;;;;;6312623;22;19906;-88
2022/03/24 07:27:42;;;;;;;;;;;21.80;34.50;;;;;;6338435;22;19938;-88
2022/03/24 07:30:09;;;;;;;;;;;22.20;34.10;;;;;;6340342;22;19907;-88
2022/03/24 07:32:35;;;;;;;;;;;22.60;33.40;;;;;;6312327;22;19910;-89
2022/03/24 07:35:01;;;;;;;;;;;23.00;33.00;;;;;;6339686;22;19907;-89
2022/03/24 07:37:31;;;;;;;;;;;23.40;32.20;;;;;;6339086;22;19953;-89
2022/03/24 07:39:56;;;;;;;;;;;23.70;31.40;;;;;;6312287;22;19948;-89
2022/03/24 07:42:22;;;;;;;;;;;24.10;30.80;;;;;;6339577;22;19906;-89
2022/03/24 07:44:48;;;;;;;;;;;24.50;30.50;;;;;;6340701;22;19928;-88
2022/03/24 07:47:14;;;;;;;;;;;24.80;29.50;;;;;;6337624;22;19899;-88
2022/03/24 07:49:39;;;;;;;;;;;25.20;29.00;;;;;;6339242;22;19913;-88
2022/03/24 07:52:08;;;;;;;;;;;25.60;28.30;;;;;;6338164;22;19906;-88
2022/03/24 07:54:55;;;;;;;;;;;25.90;27.60;;;;;;6309357;22;19968;-87
2022/03/24 07:57:21;;;;;;;;;;;26.20;27.10;;;;;;6335868;22;19911;-89
2022/03/24 07:59:46;;;;;;;;;;;26.50;26.60;;;;;;6337026;22;19937;-88
2022/03/24 08:02:11;;;;;;;;;;;26.80;26.10;;;;;;6336260;22;19911;-87
2022/03/24 08:04:37;;;;;;;;;;;27.10;25.70;;;;;;6337343;22;19911;-88
2022/03/24 08:07:02;;;;;;;;;;;27.40;25.40;;;;;;6337710;22;20294;-89
2022/03/24 08:09:31;;;;;;;;;;;27.60;25.00;;;;;;6337302;22;19934;-88
2022/03/24 08:11:56;;;;;;;;;;;27.80;24.20;;;;;;6310204;22;19907;-88
2022/03/24 08:14:21;;;;;;;;;;;28.00;23.90;;;;;;6336339;22;19932;-89
2022/03/24 08:16:47;;;;;;;;;;;28.20;23.80;;;;;;6337499;22;19930;-88
2022/03/24 08:19:14;;;;;;;;;;;28.30;23.70;;;;;;6339885;22;20335;-88
2022/03/24 08:21:40;;;;;;;;;;;28.50;23.10;;;;;;6311613;22;19910;-88
2022/03/24 08:24:06;;;;;;;;;;;28.80;22.70;;;;;;6311854;22;19906;-88
2022/03/24 08:26:33;;;;;;;;;;;29.00;22.70;;;;;;6337478;22;20250;-87
2022/03/24 08:28:58;;;;;;;;;;;29.20;22.50;;;;;;6339785;22;19913;-88
2022/03/24 08:31:24;;;;;;;;;;;29.30;22.30;;;;;;6337517;22;20307;-88
2022/03/24 08:33:49;;;;;;;;;;;29.60;22.20;;;;;;6338842;22;19910;-88
2022/03/24 08:36:15;;;;;;;;;;;29.80;21.60;;;;;;6339293;22;19914;-88
2022/03/24 08:38:41;;;;;;;;;;;30.00;21.30;;;;;;6338484;22;19923;-88
2022/03/24 08:41:06;;;;;;;;;;;30.20;20.90;;;;;;6339260;22;19909;-88
2022/03/24 08:43:32;;;;;;;;;;;30.30;20.60;;;;;;6338814;22;19910;-87
2022/03/24 08:45:57;;;;;;;;;;;30.50;20.60;;;;;;6339578;22;19914;-88
2022/03/24 08:48:23;;;;;;;;;;;30.70;20.30;;;;;;6337954;22;19915;-88
2022/03/24 08:50:48;;;;;;;;;;;30.90;20.50;;;;;;6338189;22;19906;-87
2022/03/24 08:53:14;;;;;;;;;;;31.20;20.10;;;;;;6337921;22;19954;-88
2022/03/24 08:55:39;;;;;;;;;;;31.30;19.70;;;;;;6338606;22;19960;-88
2022/03/24 08:58:05;;;;;;;;;;;31.50;19.70;;;;;;6339602;22;19989;-88
2022/03/24 09:00:30;;;;;;;;;;;31.70;19.20;;;;;;6338906;22;19941;-88
2022/03/24 09:02:56;;;;;;;;;;;31.80;19.10;;;;;;6341360;22;19911;-88
2022/03/24 09:05:23;;;;;;;;;;;32.00;18.70;;;;;;6338935;22;19967;-88
2022/03/24 09:07:49;;;;;;;;;;;32.20;18.70;;;;;;6313431;22;19918;-89
2022/03/24 09:10:15;;;;;;;;;;;32.40;18.60;;;;;;6313411;22;19910;-89
2022/03/24 09:12:44;;;;;;;;;;;32.60;18.10;;;;;;6339754;22;19913;-88
2022/03/24 09:15:10;;;;;;;;;;;32.70;17.60;;;;;;6339849;22;20335;-88
2022/03/24 09:17:37;;;;;;;;;;;32.70;17.40;;;;;;6311283;22;19910;-88
2022/03/24 09:20:09;;;;;;;;;;;32.80;17.40;;;;;;6339573;22;19910;-89
2022/03/24 09:22:44;;;;;;;;;;;33.00;17.60;;;;;;6339536;22;19911;-88
2022/03/24 09:25:12;;;;;;;;;;;33.20;17.40;;;;;;6338809;22;20269;-89
2022/03/24 09:27:38;;;;;;;;;;;33.40;17.20;;;;;;6312210;22;19914;-89
2022/03/24 09:30:05;;;;;;;;;;;33.50;16.90;;;;;;6313842;22;19922;-89
2022/03/24 09:32:30;;;;;;;;;;;33.70;16.70;;;;;;6341030;22;19953;-89
2022/03/24 09:34:56;;;;;;;;;;;33.90;16.80;;;;;;6340330;22;19914;-89
2022/03/24 09:37:22;;;;;;;;;;;34.10;16.70;;;;;;6338385;22;19922;-90
2022/03/24 09:39:48;;;;;;;;;;;34.30;16.40;;;;;;6340638;22;19906;-88
2022/03/24 09:42:14;;;;;;;;;;;34.30;15.90;;;;;;6313566;22;19932;-89
2022/03/24 09:44:42;;;;;;;;;;;34.30;16.00;;;;;;6341326;22;19910;-88
2022/03/24 09:47:14;;;;;;;;;;;34.40;16.00;;;;;;6341372;22;19906;-87
2022/03/24 09:49:40;;;;;;;;;;;34.30;15.50;;;;;;6340658;22;19906;-88
2022/03/24 09:52:06;;;;;;;;;;;34.20;15.00;;;;;;6312601;22;19992;-89
2022/03/24 09:54:32;;;;;;;;;;;34.10;15.10;;;;;;6312064;22;19910;-87
2022/03/24 09:57:02;;;;;;;;;;;34.10;14.90;;;;;;6336925;22;20348;-89
2022/03/24 09:59:27;;;;;;;;;;;34.20;15.10;;;;;;6313232;22;19918;-88
2022/03/24 10:01:55;;;;;;;;;;;34.30;15.00;;;;;;6340853;22;20256;-88
2022/03/24 10:04:21;;;;;;;;;;;34.30;14.80;;;;;;6338899;22;19917;-88
2022/03/24 10:06:59;;;;;;;;;;;34.30;14.60;;;;;;6340230;22;20217;-88
2022/03/24 10:09:39;;;;;;;;;;;34.30;14.10;;;;;;6312154;22;19922;-88
2022/03/24 10:12:05;;;;;;;;;;;34.30;13.80;;;;;;6339440;22;19997;-88
2022/03/24 10:14:30;;;;;;;;;;;34.30;13.80;;;;;;6339562;22;19960;-88
2022/03/24 10:17:04;;;;;;;;;;;34.30;14.10;;;;;;6336309;22;19911;-89
2022/03/24 10:19:30;;;;;;;;;;;34.30;13.50;;;;;;6337363;22;20311;-89
2022/03/24 10:21:56;;;;;;;;;;;34.30;13.60;;;;;;6337584;22;19922;-88
2022/03/24 10:24:22;;;;;;;;;;;34.40;13.80;;;;;;6312429;22;19956;-89
2022/03/24 10:26:59;;;;;;;;;;;34.50;14.10;;;;;;6311168;22;19960;-88
2022/03/24 10:29:25;;;;;;;;;;;34.80;14.30;;;;;;6339960;22;19902;-88
2022/03/24 10:31:54;;;;;;;;;;;35.10;14.20;;;;;;6337911;22;19918;-88
2022/03/24 10:34:27;;;;;;;;;;;35.40;14.40;;;;;;6339290;22;19936;-89
2022/03/24 10:36:52;;;;;;;;;;;35.70;14.20;;;;;;6339447;22;19910;-88
2022/03/24 10:39:23;;;;;;;;;;;35.70;13.80;;;;;;6337584;22;19937;-88
2022/03/24 10:41:48;;;;;;;;;;;35.80;13.80;;;;;;6338396;22;19914;-89
2022/03/24 10:44:15;;;;;;;;;;;35.90;13.80;;;;;;6341117;22;20706;-88
2022/03/24 10:46:43;;;;;;;;;;;35.90;13.60;;;;;;6339692;22;19910;-88
2022/03/24 10:49:16;;;;;;;;;;;36.00;14.00;;;;;;6313120;22;19910;-88
2022/03/24 10:51:43;;;;;;;;;;;36.20;13.70;;;;;;6313223;22;19907;-89
2022/03/24 10:54:28;;;;;;;;;;;36.30;13.40;;;;;;6312760;22;19993;-88
2022/03/24 10:57:08;;;;;;;;;;;36.30;13.10;;;;;;6340277;22;19910;-89
2022/03/24 10:59:35;;;;;;;;;;;36.30;12.80;;;;;;6341254;22;19941;-88
2022/03/24 11:02:01;;;;;;;;;;;36.30;12.50;;;;;;6340991;22;19937;-88
2022/03/24 11:04:26;;;;;;;;;;;36.20;11.90;;;;;;6339770;22;20240;-89
2022/03/24 11:06:52;;;;;;;;;;;36.10;11.90;;;;;;6340711;22;19946;-88
2022/03/24 11:09:27;;;;;;;;;;;36.00;11.90;;;;;;6313389;22;19918;-89
2022/03/24 11:12:12;;;;;;;;;;;36.00;12.10;;;;;;6312000;22;21327;-88
2022/03/24 11:14:39;;;;;;;;;;;35.90;11.60;;;;;;6338683;22;19913;-88
2022/03/24 11:17:04;;;;;;;;;;;35.80;11.60;;;;;;6340097;22;20208;-88
2022/03/24 11:19:31;;;;;;;;;;;35.70;11.90;;;;;;6338704;22;19899;-88
2022/03/24 11:21:58;;;;;;;;;;;35.70;11.70;;;;;;6340552;22;19910;-88
2022/03/24 11:24:24;;;;;;;;;;;35.50;11.30;;;;;;6339787;22;19915;-88
2022/03/24 11:26:50;;;;;;;;;;;35.50;11.70;;;;;;6310956;22;19921;-88
2022/03/24 11:29:16;;;;;;;;;;;35.40;11.40;;;;;;6340611;22;19902;-89
2022/03/24 11:31:45;;;;;;;;;;;35.10;10.90;;;;;;6339009;22;19933;-87
2022/03/24 11:34:10;;;;;;;;;;;34.80;11.00;;;;;;6313891;22;19907;-89
2022/03/24 11:36:36;;;;;;;;;;;34.90;11.20;;;;;;6339518;22;20298;-89
2022/03/24 11:39:04;;;;;;;;;;;34.90;11.20;;;;;;6338234;22;19965;-88
2022/03/24 11:41:40;;;;;;;;;;;34.80;11.10;;;;;;6311671;22;20359;-88
2022/03/24 11:44:09;;;;;;;;;;;34.80;11.20;;;;;;6312364;22;19989;-89
2022/03/24 11:47:01;;;;;;;;;;;34.70;11.20;;;;;;6340503;22;19918;-89
2022/03/24 11:49:28;;;;;;;;;;;34.70;11.50;;;;;;6334676;22;19921;-88
2022/03/24 11:51:56;;;;;;;;;;;34.80;11.50;;;;;;6341101;22;19913;-89
2022/03/24 11:54:29;;;;;;;;;;;34.60;11.50;;;;;;6342112;22;19915;-89
2022/03/24 11:57:13;;;;;;;;;;;34.40;11.80;;;;;;6313341;22;19930;-89
2022/03/24 11:59:38;;;;;;;;;;;34.50;11.80;;;;;;6340433;22;19998;-87
2022/03/24 12:02:15;;;;;;;;;;;34.40;11.70;;;;;;6340989;22;19914;-88
2022/03/24 12:04:45;;;;;;;;;;;34.20;11.70;;;;;;6313736;22;19953;-88
2022/03/24 12:07:14;;;;;;;;;;;34.10;12.10;;;;;;6312836;22;20003;-89
2022/03/24 12:09:53;;;;;;;;;;;34.20;12.20;;;;;;6313534;22;19954;-87
2022/03/24 12:12:19;;;;;;;;;;;34.30;12.00;;;;;;6313845;22;19911;-89
2022/03/24 12:14:45;;;;;;;;;;;34.20;11.90;;;;;;6339717;22;19911;-87
2022/03/24 12:17:17;;;;;;;;;;;34.00;11.90;;;;;;6339889;22;20319;-88
2022/03/24 12:19:44;;;;;;;;;;;34.00;11.80;;;;;;6340481;22;20339;-87
2022/03/24 12:22:42;;;;;;;;;;;34.10;11.80;;;;;;6341187;22;19914;-88
2022/03/24 12:25:14;;;;;;;;;;;33.90;11.70;;;;;;6316602;22;19910;-88
2022/03/24 12:28:00;;;;;;;;;;;33.90;11.70;;;;;;6338809;22;19910;-89
2022/03/24 12:30:26;;;;;;;;;;;33.80;11.90;;;;;;6342112;22;19910;-88
2022/03/24 12:33:06;;;;;;;;;;;33.80;11.50;;;;;;6339198;22;19930;-88
2022/03/24 12:35:40;;;;;;;;;;;34.00;11.90;;;;;;6340490;22;19907;-88
2022/03/24 12:38:19;;;;;;;;;;;34.10;11.60;;;;;;6338798;22;20001;-88
2022/03/24 12:41:04;;;;;;;;;;;33.70;11.10;;;;;;6312994;22;20392;-88
2022/03/24 12:43:37;;;;;;;;;;;33.30;11.30;;;;;;6338669;22;20338;-88
2022/03/24 12:46:19;;;;;;;;;;;32.80;11.20;;;;;;6344382;22;19914;-88
2022/03/24 12:48:45;;;;;;;;;;;32.50;11.60;;;;;;6341798;22;19907;-88
2022/03/24 12:51:18;;;;;;;;;;;32.30;12.10;;;;;;6340888;22;19918;-89
2022/03/24 12:53:49;;;;;;;;;;;32.30;11.90;;;;;;6313845;22;20297;-88
2022/03/24 12:56:22;;;;;;;;;;;32.30;12.10;;;;;;6312514;22;19913;-89
2022/03/24 12:58:52;;;;;;;;;;;32.30;12.00;;;;;;6313103;22;19915;-87
2022/03/24 13:01:17;;;;;;;;;;;32.10;11.90;;;;;;6342953;22;19914;-89
2022/03/24 13:03:44;;;;;;;;;;;31.80;12.10;;;;;;6340827;22;20048;-89
2022/03/24 13:06:09;;;;;;;;;;;31.50;12.40;;;;;;6313629;22;19911;-88
2022/03/24 13:08:35;;;;;;;;;;;31.30;12.60;;;;;;6339646;22;19934;-87
2022/03/24 13:11:04;;;;;;;;;;;31.10;12.70;;;;;;6340665;22;19940;-88
2022/03/24 13:13:29;;;;;;;;;;;31.10;12.70;;;;;;6340029;22;19906;-89
2022/03/24 13:15:55;;;;;;;;;;;31.10;13.00;;;;;;6342791;22;19937;-87
2022/03/24 13:18:23;;;;;;;;;;;31.10;12.70;;;;;;6341779;22;19918;-89
2022/03/24 13:20:51;;;;;;;;;;;31.00;12.90;;;;;;6341844;22;19955;-88
2022/03/24 13:23:18;;;;;;;;;;;31.00;13.00;;;;;;6340866;22;19929;-88
2022/03/24 13:25:48;;;;;;;;;;;31.00;13.10;;;;;;6350163;22;19911;-89
2022/03/24 13:28:15;;;;;;;;;;;30.60;12.80;;;;;;6328066;22;19907;-89
2022/03/24 13:30:42;;;;;;;;;;;30.20;13.10;;;;;;6319984;22;20413;-89
2022/03/24 13:33:08;;;;;;;;;;;29.60;13.30;;;;;;6341169;22;19919;-89
2022/03/24 13:35:37;;;;;;;;;;;29.20;13.70;;;;;;6342396;22;20235;-88
2022/03/24 13:38:07;;;;;;;;;;;28.80;13.90;;;;;;6337539;22;19926;-88
2022/03/24 13:40:33;;;;;;;;;;;28.30;14.10;;;;;;6312010;22;19926;-89
2022/03/24 13:43:00;;;;;;;;;;;27.80;14.50;;;;;;6339614;22;19911;-87
2022/03/24 13:45:26;;;;;;;;;;;27.30;14.80;;;;;;6310280;22;20242;-89
2022/03/24 13:47:57;;;;;;;;;;;26.90;15.10;;;;;;6336782;22;19952;-88
2022/03/24 13:50:23;;;;;;;;;;;26.70;15.30;;;;;;6311454;22;19907;-89
2022/03/24 13:52:51;;;;;;;;;;;26.40;15.50;;;;;;6337773;22;19911;-88
2022/03/24 13:55:16;;;;;;;;;;;26.20;15.80;;;;;;6311039;22;20288;-89
2022/03/24 13:57:46;;;;;;;;;;;25.90;16.10;;;;;;6338670;22;19994;-88
2022/03/24 14:00:12;;;;;;;;;;;25.70;16.50;;;;;;6338243;22;19915;-88
2022/03/24 14:02:38;;;;;;;;;;;25.40;16.70;;;;;;6339342;22;19911;-88
2022/03/24 14:05:04;;;;;;;;;;;25.20;16.80;;;;;;6336860;22;19918;-89
2022/03/24 14:07:30;;;;;;;;;;;25.10;16.60;;;;;;6311077;22;20315;-89
2022/03/24 14:09:56;;;;;;;;;;;24.80;16.80;;;;;;6339854;22;19937;-89
2022/03/24 14:12:25;;;;;;;;;;;24.70;16.90;;;;;;6337584;22;19932;-90
2022/03/24 14:14:50;;;;;;;;;;;24.70;17.10;;;;;;6311517;22;19911;-89
2022/03/24 14:17:22;;;;;;;;;;;24.50;17.10;;;;;;6336599;22;19950;-89
2022/03/24 14:19:54;;;;;;;;;;;24.40;17.30;;;;;;6339900;22;19963;-89
2022/03/24 14:22:21;;;;;;;;;;;24.30;17.40;;;;;;6336747;22;20370;-90
2022/03/24 14:24:47;;;;;;;;;;;24.20;17.50;;;;;;6338638;22;19981;-89